Time;durP1;ratioP1;P1;durP2;ratioP2;P2;SDS_P1;SDS_P2;PMS_P1;PMS_P2;Temp;Humidity;BMP_temperature;BMP_pressure;BME280_temperature;BME280_humidity;BME280_pressure;Samples;Min_cycle;Max_cycle;Signal;HPM_P1;HPM_P2
2021/07/24 00:00:50;;;;;;;12.93;8.63;;;17.10;99.90;;;;;;5013233;28;20222;-65
2021/07/24 00:03:16;;;;;;;12.93;8.80;;;17.10;99.90;;;;;;5013036;28;20676;-65
2021/07/24 00:05:43;;;;;;;11.90;8.03;;;17.10;99.90;;;;;;5013263;28;20211;-65
2021/07/24 00:08:10;;;;;;;12.00;9.53;;;17.10;99.90;;;;;;5013282;28;20227;-66
2021/07/24 00:10:38;;;;;;;14.30;8.97;;;17.00;99.90;;;;;;5013155;28;20787;-66
2021/07/24 00:13:04;;;;;;;12.63;9.40;;;16.90;1.00;;;;;;5012262;28;20807;-66
2021/07/24 00:15:31;;;;;;;15.00;8.77;;;16.80;1.00;;;;;;5012912;28;20211;-65
2021/07/24 00:17:58;;;;;;;13.87;8.73;;;16.70;1.00;;;;;;5013280;28;20231;-65
2021/07/24 00:20:25;;;;;;;14.60;9.63;;;16.70;1.00;;;;;;5013092;28;20230;-66
2021/07/24 00:22:52;;;;;;;13.27;8.73;;;16.70;1.00;;;;;;5013280;28;20207;-66
2021/07/24 00:25:19;;;;;;;10.20;9.00;;;16.60;1.00;;;;;;5012942;28;20203;-66
2021/07/24 00:27:47;;;;;;;16.53;9.40;;;16.60;1.00;;;;;;5012710;28;20769;-66
2021/07/24 00:30:14;;;;;;;13.80;9.00;;;16.60;1.00;;;;;;5013007;28;20215;-65
2021/07/24 00:32:41;;;;;;;12.10;8.73;;;16.60;1.00;;;;;;5013038;28;20209;-64
2021/07/24 00:35:09;;;;;;;14.20;9.07;;;16.60;1.00;;;;;;5012679;28;20210;-65
2021/07/24 00:37:35;;;;;;;11.97;9.10;;;16.60;1.00;;;;;;5013082;28;20215;-65
2021/07/24 00:40:02;;;;;;;11.83;9.17;;;16.60;1.00;;;;;;5012749;28;20269;-65
2021/07/24 00:42:31;;;;;;;15.93;9.13;;;16.60;1.00;;;;;;5012416;28;20209;-66
2021/07/24 00:45:03;;;;;;;13.70;9.50;;;16.50;1.00;;;;;;5012788;28;20632;-66
2021/07/24 00:47:35;;;;;;;11.00;9.80;;;16.50;1.00;;;;;;5012682;28;20207;-65
2021/07/24 00:50:02;;;;;;;13.03;9.73;;;16.40;1.00;;;;;;5012490;28;20820;-66
2021/07/24 00:52:30;;;;;;;15.53;10.33;;;16.40;1.00;;;;;;5012261;28;20668;-65
2021/07/24 00:54:58;;;;;;;14.27;10.50;;;16.30;1.00;;;;;;5012254;28;20202;-66
2021/07/24 00:57:25;;;;;;;15.53;10.37;;;16.30;60.50;;;;;;5012524;28;20238;-65
2021/07/24 00:59:51;;;;;;;13.10;10.00;;;16.30;99.90;;;;;;5012578;28;20227;-66
2021/07/24 01:02:19;;;;;;;11.87;10.03;;;16.20;99.90;;;;;;5012302;28;20281;-65
2021/07/24 01:04:46;;;;;;;16.03;10.37;;;16.20;99.90;;;;;;5012307;28;20253;-65
2021/07/24 01:07:13;;;;;;;14.13;10.50;;;16.10;99.90;;;;;;5012275;28;20214;-65
2021/07/24 01:09:40;;;;;;;15.27;10.37;;;16.20;99.90;;;;;;5012182;28;20231;-66
2021/07/24 01:12:07;;;;;;;13.40;9.97;;;16.10;99.90;;;;;;5012458;28;20211;-65
2021/07/24 01:14:34;;;;;;;16.63;10.70;;;16.10;1.00;;;;;;5012179;28;20207;-65
2021/07/24 01:17:01;;;;;;;14.13;10.23;;;16.10;1.00;;;;;;5012195;28;20203;-65
2021/07/24 01:19:29;;;;;;;13.70;10.10;;;16.10;1.00;;;;;;5011966;28;20709;-65
2021/07/24 01:21:57;;;;;;;14.73;10.63;;;16.10;1.00;;;;;;5012118;28;20233;-66
2021/07/24 01:24:24;;;;;;;14.57;10.27;;;16.00;47.00;;;;;;5011436;28;20261;-65
2021/07/24 01:26:51;;;;;;;18.00;10.77;;;16.00;99.90;;;;;;5012257;28;20207;-65
2021/07/24 01:29:20;;;;;;;16.10;10.40;;;16.00;99.90;;;;;;5012162;28;20285;-65
2021/07/24 01:31:47;;;;;;;13.80;10.37;;;16.00;99.90;;;;;;5012300;28;20230;-65
2021/07/24 01:34:13;;;;;;;13.07;10.10;;;16.00;99.90;;;;;;5011717;28;20211;-65
2021/07/24 01:36:40;;;;;;;16.30;10.73;;;16.00;99.90;;;;;;5011914;28;20206;-65
2021/07/24 01:39:09;;;;;;;13.23;10.17;;;16.00;94.30;;;;;;5011885;28;20648;-64
2021/07/24 01:41:36;;;;;;;15.70;10.90;;;16.00;99.90;;;;;;5011723;28;20643;-66
2021/07/24 01:44:03;;;;;;;17.27;11.53;;;16.00;99.90;;;;;;5011962;28;20221;-64
2021/07/24 01:46:30;;;;;;;15.33;11.10;;;15.90;99.90;;;;;;5012027;28;20203;-65
2021/07/24 01:49:10;;;;;;;15.43;11.07;;;15.90;99.90;;;;;;5011810;28;20238;-65
2021/07/24 01:54:44;;;;;;;14.90;11.30;;;15.90;99.90;;;;;;4987519;28;20750;-65
2021/07/24 01:57:14;;;;;;;16.17;11.10;;;15.90;99.90;;;;;;5011830;28;20202;-65
2021/07/24 01:59:44;;;;;;;16.13;11.37;;;15.90;99.90;;;;;;5011536;28;20716;-66
2021/07/24 02:02:12;;;;;;;17.70;11.60;;;15.80;99.90;;;;;;5011702;28;20766;-66
2021/07/24 02:04:46;;;;;;;16.00;10.33;;;15.80;99.90;;;;;;5011779;28;20261;-65
2021/07/24 02:07:13;;;;;;;16.20;11.13;;;15.80;1.00;;;;;;5011852;28;20269;-65
2021/07/24 02:09:41;;;;;;;15.00;11.37;;;15.70;1.00;;;;;;5011875;28;20231;-66
2021/07/24 02:12:10;;;;;;;15.57;12.30;;;15.70;99.90;;;;;;5011631;28;20203;-66
2021/07/24 02:14:36;;;;;;;20.53;11.80;;;15.70;99.90;;;;;;5011849;28;20219;-65
2021/07/24 02:17:03;;;;;;;15.10;10.93;;;15.70;1.00;;;;;;5011675;28;20211;-65
2021/07/24 02:19:32;;;;;;;17.67;11.67;;;15.70;1.00;;;;;;5011742;28;20223;-65
2021/07/24 02:21:59;;;;;;;17.27;11.07;;;15.70;1.00;;;;;;5011777;28;20231;-67
2021/07/24 02:24:26;;;;;;;18.93;12.03;;;15.60;47.50;;;;;;5011399;28;20207;-65
2021/07/24 02:26:54;;;;;;;17.73;11.57;;;15.60;99.90;;;;;;5011482;28;20568;-66
2021/07/24 02:29:21;;;;;;;16.30;12.63;;;15.60;99.90;;;;;;5011626;28;20227;-66
2021/07/24 02:31:47;;;;;;;19.03;12.40;;;15.50;99.90;;;;;;5011864;28;20560;-65
2021/07/24 02:34:14;;;;;;;17.70;12.80;;;15.50;99.90;;;;;;5011459;28;20253;-66
2021/07/24 02:36:40;;;;;;;15.57;11.33;;;15.50;99.90;;;;;;5014175;28;20207;-65
2021/07/24 02:39:07;;;;;;;19.17;12.53;;;15.50;1.00;;;;;;5014754;28;20654;-65
2021/07/24 02:41:33;;;;;;;17.80;12.40;;;15.50;1.00;;;;;;5015052;28;20231;-65
2021/07/24 02:44:01;;;;;;;17.43;13.23;;;15.40;1.00;;;;;;5014829;28;20904;-66
2021/07/24 02:46:28;;;;;;;18.03;12.80;;;15.30;73.10;;;;;;5014905;28;20203;-66
2021/07/24 02:48:54;;;;;;;20.97;12.87;;;15.30;99.90;;;;;;5014791;28;20238;-65
2021/07/24 02:51:21;;;;;;;20.70;12.90;;;15.30;99.90;;;;;;5014761;28;20207;-65
2021/07/24 02:53:48;;;;;;;18.53;13.23;;;15.30;99.90;;;;;;5014475;28;20206;-66
2021/07/24 02:56:14;;;;;;;21.47;13.90;;;15.20;1.00;;;;;;5014616;28;20214;-66
2021/07/24 02:58:41;;;;;;;18.27;13.03;;;15.20;16.00;;;;;;5014388;28;20232;-65
2021/07/24 03:01:09;;;;;;;18.33;12.97;;;15.20;99.90;;;;;;5013918;28;20227;-65
2021/07/24 03:03:36;;;;;;;20.20;13.57;;;15.20;99.90;;;;;;5014504;28;20617;-66
2021/07/24 03:06:03;;;;;;;18.07;12.60;;;15.20;99.90;;;;;;5014343;28;20211;-64
2021/07/24 03:08:30;;;;;;;17.03;13.53;;;15.20;99.90;;;;;;5014282;28;20231;-66
2021/07/24 03:10:57;;;;;;;16.63;13.20;;;15.10;99.90;;;;;;5014601;28;20621;-66
2021/07/24 03:13:23;;;;;;;17.03;13.97;;;15.10;1.00;;;;;;5014461;28;20257;-65
2021/07/24 03:15:50;;;;;;;16.30;13.47;;;15.00;52.80;;;;;;5014383;28;20214;-65
2021/07/24 03:18:18;;;;;;;21.03;13.97;;;15.00;99.90;;;;;;5014178;28;20276;-66
2021/07/24 03:20:44;;;;;;;20.20;14.60;;;14.90;99.90;;;;;;5013989;28;20276;-65
2021/07/24 03:23:11;;;;;;;19.77;14.53;;;14.80;56.10;;;;;;5013762;28;20599;-65
2021/07/24 03:25:41;;;;;;;19.03;14.50;;;14.80;99.90;;;;;;5014181;28;20211;-65
2021/07/24 03:28:07;;;;;;;22.70;15.13;;;14.80;1.00;;;;;;5014698;28;20238;-64
2021/07/24 03:30:34;;;;;;;19.40;14.30;;;14.80;1.00;;;;;;5014139;28;20257;-65
2021/07/24 03:33:01;;;;;;;19.03;14.63;;;14.80;1.00;;;;;;5013988;28;20261;-65
2021/07/24 03:35:29;;;;;;;21.87;14.37;;;14.90;1.00;;;;;;5013631;28;20218;-65
2021/07/24 03:37:56;;;;;;;18.47;15.33;;;14.80;1.00;;;;;;5014123;28;20230;-64
2021/07/24 03:40:22;;;;;;;23.03;14.93;;;14.80;1.00;;;;;;5013626;28;20825;-65
2021/07/24 03:42:49;;;;;;;19.97;15.07;;;14.80;13.30;;;;;;5013934;28;20268;-65
2021/07/24 03:45:15;;;;;;;21.07;15.23;;;14.80;1.00;;;;;;5013623;28;20584;-65
2021/07/24 03:47:42;;;;;;;18.87;13.97;;;14.80;52.40;;;;;;5012945;28;20213;-65
2021/07/24 03:50:10;;;;;;;21.53;15.73;;;14.80;99.90;;;;;;5013293;28;20578;-65
2021/07/24 03:52:37;;;;;;;24.37;14.70;;;14.80;82.90;;;;;;5013781;28;20210;-64
2021/07/24 03:55:05;;;;;;;20.23;14.83;;;14.80;99.90;;;;;;5013498;28;20265;-64
2021/07/24 03:57:31;;;;;;;22.17;15.07;;;14.70;99.90;;;;;;5013504;28;20623;-65
2021/07/24 04:00:00;;;;;;;21.73;15.53;;;14.70;99.90;;;;;;5013498;28;20271;-65
2021/07/24 04:02:28;;;;;;;24.33;16.17;;;14.80;99.90;;;;;;5012998;28;20223;-65
2021/07/24 04:04:54;;;;;;;19.83;14.67;;;14.80;1.00;;;;;;5013435;28;20217;-65
2021/07/24 04:07:23;;;;;;;21.97;15.53;;;14.80;99.90;;;;;;5013397;28;20203;-65
2021/07/24 04:09:53;;;;;;;22.57;15.67;;;14.90;99.90;;;;;;5013360;28;20234;-65
2021/07/24 04:12:20;;;;;;;25.50;15.67;;;14.90;82.60;;;;;;5013207;28;20206;-66
2021/07/24 04:14:47;;;;;;;19.57;15.23;;;14.90;8.20;;;;;;5013100;28;20636;-65
2021/07/24 04:17:14;;;;;;;23.20;15.57;;;14.90;1.00;;;;;;5012935;28;20570;-65
2021/07/24 04:19:40;;;;;;;21.73;14.97;;;15.00;1.00;;;;;;5013221;28;20237;-65
2021/07/24 04:22:07;;;;;;;17.17;13.83;;;15.00;99.90;;;;;;5013026;28;20227;-65
2021/07/24 04:24:33;;;;;;;20.17;15.63;;;15.00;99.90;;;;;;5013033;28;20203;-65
2021/07/24 04:27:01;;;;;;;19.70;14.23;;;15.10;1.00;;;;;;5012889;28;20645;-65
2021/07/24 04:29:28;;;;;;;21.20;14.90;;;15.20;1.00;;;;;;5012899;28;20358;-65
2021/07/24 04:31:55;;;;;;;18.97;14.23;;;15.20;99.90;;;;;;5013218;28;20612;-65
2021/07/24 04:34:22;;;;;;;20.40;14.10;;;15.30;49.00;;;;;;5012665;28;20686;-65
2021/07/24 04:36:48;;;;;;;20.30;14.57;;;15.40;1.00;;;;;;5012876;28;20210;-65
2021/07/24 04:39:15;;;;;;;18.10;13.20;;;15.40;99.90;;;;;;5012735;28;20231;-64
2021/07/24 04:41:42;;;;;;;20.57;14.30;;;15.50;1.00;;;;;;5012919;28;20223;-65
2021/07/24 04:44:10;;;;;;;18.03;13.53;;;15.50;99.90;;;;;;5012225;28;20273;-65
2021/07/24 04:46:37;;;;;;;19.73;13.53;;;15.60;1.00;;;;;;5012650;28;20203;-65
2021/07/24 04:49:03;;;;;;;20.80;13.73;;;15.80;1.00;;;;;;5012392;28;20683;-65
2021/07/24 04:51:30;;;;;;;18.30;12.73;;;15.90;1.00;;;;;;5012532;28;20671;-65
2021/07/24 04:53:58;;;;;;;18.37;12.37;;;15.90;1.00;;;;;;5012419;28;20238;-65
2021/07/24 04:56:25;;;;;;;20.77;13.73;;;16.10;99.90;;;;;;5012520;28;20253;-65
2021/07/24 04:58:52;;;;;;;16.80;12.53;;;16.20;99.90;;;;;;5011686;28;20227;-64
2021/07/24 05:01:21;;;;;;;16.57;12.43;;;16.30;1.00;;;;;;5012530;28;20227;-66
2021/07/24 05:03:48;;;;;;;16.67;12.73;;;16.50;99.90;;;;;;5012514;28;20207;-65
2021/07/24 05:06:15;;;;;;;18.10;12.70;;;16.60;99.90;;;;;;5012586;28;20698;-66
2021/07/24 05:08:42;;;;;;;18.03;11.90;;;16.70;1.00;;;;;;5012371;28;20856;-66
2021/07/24 05:11:08;;;;;;;17.93;12.97;;;16.80;1.00;;;;;;5012133;28;20621;-64
2021/07/24 05:13:35;;;;;;;14.37;11.53;;;16.90;99.90;;;;;;5012139;28;20219;-65
2021/07/24 05:16:01;;;;;;;14.50;12.50;;;17.00;99.90;;;;;;5012526;28;20253;-66
2021/07/24 05:18:29;;;;;;;14.57;11.60;;;17.10;26.60;;;;;;5012158;28;20227;-64
2021/07/24 05:20:56;;;;;;;16.00;12.50;;;17.20;1.00;;;;;;5012058;28;20237;-66
2021/07/24 05:23:23;;;;;;;16.77;12.43;;;17.20;99.90;;;;;;5012535;28;20625;-65
2021/07/24 05:25:50;;;;;;;16.73;11.60;;;17.30;99.90;;;;;;5011922;28;20292;-65
2021/07/24 05:28:17;;;;;;;16.07;11.50;;;17.30;99.90;;;;;;5012240;28;20719;-65
2021/07/24 05:30:43;;;;;;;17.83;12.10;;;17.40;99.90;;;;;;5012304;28;20210;-66
2021/07/24 05:33:10;;;;;;;17.90;12.37;;;17.50;1.00;;;;;;5011985;28;20664;-65
2021/07/24 05:35:38;;;;;;;15.97;12.17;;;17.50;1.00;;;;;;5012000;28;20219;-65
2021/07/24 05:38:04;;;;;;;15.20;12.00;;;17.50;13.70;;;;;;5012089;28;20231;-66
2021/07/24 05:40:31;;;;;;;15.10;12.07;;;17.60;1.00;;;;;;5011880;28;20206;-65
2021/07/24 05:43:02;;;;;;;15.87;11.57;;;17.70;1.00;;;;;;5012071;28;20227;-66
2021/07/24 05:45:28;;;;;;;15.40;12.00;;;17.70;1.00;;;;;;5011844;28;20211;-65
2021/07/24 05:47:55;;;;;;;14.87;11.43;;;17.80;99.90;;;;;;5011809;28;20230;-65
2021/07/24 05:50:22;;;;;;;14.30;11.37;;;17.90;99.90;;;;;;5011941;28;20261;-65
2021/07/24 05:52:50;;;;;;;14.73;12.03;;;17.80;99.90;;;;;;5011925;28;20249;-65
2021/07/24 05:55:17;;;;;;;14.63;11.10;;;17.80;99.90;;;;;;5011690;28;20265;-66
2021/07/24 05:57:43;;;;;;;13.67;10.63;;;18.00;99.90;;;;;;5011968;28;20253;-65
2021/07/24 06:00:11;;;;;;;14.97;11.63;;;18.10;99.90;;;;;;5011814;28;20261;-65
2021/07/24 06:02:37;;;;;;;16.77;11.00;;;18.20;99.90;;;;;;5011340;28;20231;-64
2021/07/24 06:05:05;;;;;;;12.90;10.40;;;18.40;99.90;;;;;;5011525;28;20215;-64
2021/07/24 06:07:32;;;;;;;12.70;10.70;;;18.50;99.90;;;;;;5011591;28;20267;-65
2021/07/24 06:10:00;;;;;;;13.83;10.17;;;18.60;99.90;;;;;;5013654;28;20213;-65
2021/07/24 06:12:26;;;;;;;11.83;10.27;;;18.80;99.90;;;;;;5015607;28;20199;-65
2021/07/24 06:14:53;;;;;;;12.47;10.03;;;18.80;99.90;;;;;;5015494;28;20245;-66
2021/07/24 06:17:19;;;;;;;13.67;10.13;;;18.90;99.90;;;;;;5015548;28;20269;-66
2021/07/24 06:19:46;;;;;;;12.07;10.10;;;19.00;57.10;;;;;;5015268;28;20227;-64
2021/07/24 06:22:13;;;;;;;13.93;10.13;;;19.00;75.70;;;;;;5015524;28;20226;-66
2021/07/24 06:24:39;;;;;;;14.03;9.87;;;19.00;99.60;;;;;;5015758;28;20206;-66
2021/07/24 06:27:07;;;;;;;14.77;9.90;;;19.00;76.10;;;;;;5015793;28;20211;-65
2021/07/24 06:29:34;;;;;;;12.80;9.83;;;19.00;99.90;;;;;;5015312;28;20227;-64
2021/07/24 06:32:00;;;;;;;14.20;9.80;;;19.10;99.90;;;;;;5015124;28;20261;-65
2021/07/24 06:34:27;;;;;;;20.37;10.37;;;19.10;99.90;;;;;;5014796;28;20733;-65
2021/07/24 06:36:54;;;;;;;12.03;9.77;;;19.00;84.20;;;;;;5015212;28;20273;-66
2021/07/24 06:39:21;;;;;;;15.23;9.17;;;19.10;9.90;;;;;;5014968;28;20238;-64
2021/07/24 06:41:48;;;;;;;12.20;9.27;;;19.00;10.10;;;;;;5014803;28;20223;-66
2021/07/24 06:44:16;;;;;;;11.40;9.50;;;19.00;25.80;;;;;;5014905;28;20207;-65
2021/07/24 06:46:42;;;;;;;15.10;10.33;;;19.00;34.00;;;;;;5014933;28;20265;-65
2021/07/24 06:49:09;;;;;;;14.37;10.53;;;19.00;40.40;;;;;;5014221;28;20689;-65
2021/07/24 06:51:35;;;;;;;14.70;10.10;;;19.00;51.40;;;;;;5014855;28;20264;-65
2021/07/24 06:54:02;;;;;;;10.80;9.27;;;19.10;22.40;;;;;;5014507;28;20742;-66
2021/07/24 06:56:29;;;;;;;12.90;10.20;;;19.30;75.50;;;;;;5014688;28;20222;-64
2021/07/24 06:58:55;;;;;;;13.63;10.00;;;19.50;1.00;;;;;;5014520;28;20235;-65
2021/07/24 07:01:23;;;;;;;11.03;9.87;;;19.70;10.10;;;;;;5014651;28;20623;-65
2021/07/24 07:03:50;;;;;;;11.67;9.67;;;19.70;1.00;;;;;;5014115;28;20285;-65
2021/07/24 07:06:16;;;;;;;11.30;9.43;;;19.80;1.00;;;;;;5014603;28;20261;-66
2021/07/24 07:08:43;;;;;;;14.47;9.43;;;19.90;1.00;;;;;;5014512;28;20227;-64
2021/07/24 07:11:10;;;;;;;11.80;9.90;;;19.90;1.00;;;;;;5014529;28;20214;-65
2021/07/24 07:13:37;;;;;;;12.83;9.03;;;19.90;1.00;;;;;;5014306;28;20579;-66
2021/07/24 07:16:04;;;;;;;16.53;9.33;;;20.00;1.00;;;;;;5014021;28;20211;-65
2021/07/24 07:18:32;;;;;;;15.63;9.53;;;20.20;1.00;;;;;;5013722;28;20238;-64
2021/07/24 07:20:59;;;;;;;18.63;9.97;;;20.30;1.00;;;;;;5013707;28;20253;-66
2021/07/24 07:23:26;;;;;;;11.93;8.63;;;20.10;1.00;;;;;;5014075;28;20234;-65
2021/07/24 07:25:52;;;;;;;15.20;9.93;;;20.20;1.00;;;;;;5014162;28;20211;-65
2021/07/24 07:28:19;;;;;;;12.13;9.80;;;20.30;1.00;;;;;;5014072;28;20227;-65
2021/07/24 07:30:46;;;;;;;11.70;9.50;;;20.50;1.00;;;;;;5013847;28;20277;-65
2021/07/24 07:33:12;;;;;;;12.83;9.20;;;20.60;1.00;;;;;;5014109;28;20264;-65
2021/07/24 07:35:40;;;;;;;11.57;9.60;;;20.60;1.00;;;;;;5013803;28;20693;-65
2021/07/24 07:38:07;;;;;;;13.93;9.73;;;20.70;1.00;;;;;;5013926;28;20227;-65
2021/07/24 07:40:38;;;;;;;11.70;9.17;;;20.70;1.00;;;;;;5013911;28;20265;-65
2021/07/24 07:43:06;;;;;;;14.53;9.60;;;20.60;1.00;;;;;;5011834;28;20581;-65
2021/07/24 07:45:32;;;;;;;14.27;10.60;;;20.60;1.00;;;;;;5023665;28;20206;-63
2021/07/24 07:47:59;;;;;;;14.20;9.97;;;20.60;1.00;;;;;;5032727;28;20222;-64
2021/07/24 07:50:26;;;;;;;15.47;9.67;;;20.70;1.00;;;;;;5033611;28;20210;-64
2021/07/24 07:52:54;;;;;;;15.47;9.63;;;20.80;1.00;;;;;;5033396;28;20556;-64
2021/07/24 07:55:20;;;;;;;16.80;12.97;;;20.80;1.00;;;;;;5033274;28;20202;-63
2021/07/24 07:57:47;;;;;;;13.00;9.83;;;20.90;1.00;;;;;;5024266;28;20703;-64
2021/07/24 08:00:15;;;;;;;14.07;10.17;;;21.00;1.00;;;;;;5012542;28;20694;-63
2021/07/24 08:02:41;;;;;;;13.20;9.57;;;21.20;1.00;;;;;;5013083;28;20226;-63
2021/07/24 08:05:09;;;;;;;10.70;9.00;;;21.30;1.00;;;;;;5012998;28;20233;-63
2021/07/24 08:07:35;;;;;;;13.20;9.43;;;21.40;99.90;;;;;;5012766;28;20219;-63
2021/07/24 08:10:04;;;;;;;13.50;10.20;;;21.50;1.00;;;;;;5012893;28;20203;-63
2021/07/24 08:12:31;;;;;;;13.83;9.30;;;21.40;99.90;;;;;;5012568;28;20203;-63
2021/07/24 08:14:57;;;;;;;14.07;9.87;;;21.40;99.90;;;;;;5012793;28;20211;-63
2021/07/24 08:17:24;;;;;;;17.73;10.37;;;21.40;99.90;;;;;;5012591;28;20257;-63
2021/07/24 08:19:51;;;;;;;12.93;9.90;;;21.50;1.00;;;;;;5012269;28;20797;-63
2021/07/24 08:22:17;;;;;;;13.87;9.33;;;21.70;1.00;;;;;;5012814;28;20580;-63
2021/07/24 08:24:44;;;;;;;9.87;8.17;;;22.10;99.90;;;;;;5012273;28;20225;-64
2021/07/24 08:27:12;;;;;;;13.73;9.43;;;22.40;99.90;;;;;;5012594;28;20207;-63
2021/07/24 08:29:39;;;;;;;16.30;9.80;;;22.80;99.90;;;;;;5012476;28;20230;-63
2021/07/24 08:32:08;;;;;;;13.00;9.27;;;23.00;99.90;;;;;;5012427;28;20447;-62
2021/07/24 08:34:35;;;;;;;12.70;9.20;;;23.20;99.90;;;;;;5011937;28;20210;-62
2021/07/24 08:37:02;;;;;;;12.27;9.93;;;23.20;99.90;;;;;;5012720;28;20253;-62
2021/07/24 08:39:28;;;;;;;12.93;9.23;;;23.30;99.90;;;;;;5012078;28;20631;-63
2021/07/24 08:41:55;;;;;;;11.53;8.77;;;23.30;99.90;;;;;;5012597;28;20211;-63
2021/07/24 08:44:23;;;;;;;13.70;9.67;;;23.30;99.90;;;;;;5012739;28;20227;-63
2021/07/24 08:46:50;;;;;;;11.67;8.80;;;23.30;99.90;;;;;;5012763;28;20211;-63
2021/07/24 08:49:16;;;;;;;12.23;9.40;;;23.30;99.90;;;;;;5011827;28;20281;-63
2021/07/24 08:51:43;;;;;;;14.73;9.33;;;23.40;99.90;;;;;;5012607;28;20261;-63
2021/07/24 08:54:10;;;;;;;11.80;9.30;;;23.40;99.90;;;;;;5012079;28;20282;-62
2021/07/24 08:56:44;;;;;;;14.23;8.90;;;23.50;99.90;;;;;;5012702;28;20207;-62
2021/07/24 08:59:13;;;;;;;15.43;10.23;;;23.60;99.90;;;;;;5012343;28;20236;-63
2021/07/24 09:01:47;;;;;;;14.57;8.77;;;23.80;99.90;;;;;;5012609;28;20215;-63
2021/07/24 09:04:14;;;;;;;13.20;8.37;;;23.90;99.90;;;;;;5011844;28;20227;-63
2021/07/24 09:06:41;;;;;;;13.30;9.07;;;24.20;99.90;;;;;;5012268;28;20206;-63
2021/07/24 09:09:08;;;;;;;12.63;8.80;;;24.20;99.90;;;;;;5012261;28;20231;-63
2021/07/24 09:11:35;;;;;;;12.67;9.40;;;24.00;99.90;;;;;;5012397;28;20734;-62
2021/07/24 09:14:01;;;;;;;11.60;9.47;;;23.70;99.90;;;;;;5012073;28;20199;-63
2021/07/24 09:16:28;;;;;;;17.97;9.70;;;23.60;99.90;;;;;;5012364;28;20207;-63
2021/07/24 09:18:59;;;;;;;14.37;9.50;;;23.60;99.90;;;;;;5012279;28;20233;-63
2021/07/24 09:21:27;;;;;;;11.43;8.77;;;23.80;99.90;;;;;;5012133;28;20755;-63
2021/07/24 09:23:54;;;;;;;11.60;9.13;;;23.90;99.90;;;;;;5011893;28;20706;-62
2021/07/24 09:26:30;;;;;;;12.50;9.57;;;23.80;99.90;;;;;;5012042;28;20916;-63
2021/07/24 09:29:10;;;;;;;15.00;9.97;;;23.90;99.90;;;;;;5012101;28;20261;-63
2021/07/24 09:31:39;;;;;;;12.97;9.80;;;24.00;99.90;;;;;;5012025;28;20217;-63
2021/07/24 09:34:07;;;;;;;111.67;80.03;;;24.00;99.90;;;;;;5011903;28;20203;-62
2021/07/24 09:36:35;;;;;;;14.90;9.57;;;24.10;99.90;;;;;;5012019;28;20218;-63
2021/07/24 09:39:12;;;;;;;13.53;10.40;;;24.30;99.90;;;;;;5012062;28;20651;-62
2021/07/24 09:41:41;;;;;;;14.00;9.97;;;24.50;99.90;;;;;;5011996;28;20211;-62
2021/07/24 09:44:08;;;;;;;14.97;10.87;;;24.50;99.90;;;;;;5011827;28;20603;-63
2021/07/24 09:46:35;;;;;;;13.67;9.20;;;24.40;99.90;;;;;;5016232;28;20237;-62
2021/07/24 09:49:14;;;;;;;14.37;9.90;;;24.50;99.90;;;;;;5016663;28;20246;-62
2021/07/24 09:51:41;;;;;;;16.50;10.03;;;24.70;99.90;;;;;;5016502;28;20257;-62
2021/07/24 09:54:24;;;;;;;14.57;10.33;;;24.60;99.90;;;;;;5015524;28;20206;-62
2021/07/24 09:56:51;;;;;;;11.73;10.10;;;24.80;99.90;;;;;;5015282;28;20667;-62
2021/07/24 09:59:19;;;;;;;10.93;9.60;;;24.90;99.90;;;;;;5015686;28;20598;-62
2021/07/24 10:01:54;;;;;;;15.70;9.73;;;25.00;99.90;;;;;;5015895;28;20206;-62
2021/07/24 10:04:29;;;;;;;13.77;10.13;;;25.00;99.90;;;;;;5015456;28;20230;-63
2021/07/24 10:06:58;;;;;;;16.77;10.23;;;25.10;99.90;;;;;;5015719;28;20709;-63
2021/07/24 10:09:28;;;;;;;10.60;9.50;;;25.20;99.90;;;;;;5015531;28;20227;-63
2021/07/24 10:11:55;;;;;;;12.70;10.17;;;25.50;99.90;;;;;;5016178;28;20210;-63
2021/07/24 10:14:22;;;;;;;12.27;9.23;;;25.50;99.90;;;;;;5016199;28;20207;-63
2021/07/24 10:16:50;;;;;;;12.27;9.60;;;25.50;99.90;;;;;;5016053;28;20675;-66
2021/07/24 10:19:18;;;;;;;13.97;10.20;;;25.60;99.90;;;;;;5044234;28;20659;-66
2021/07/24 10:21:46;;;;;;;12.87;10.37;;;25.70;99.90;;;;;;5036294;28;20253;-66
2021/07/24 10:24:13;;;;;;;14.30;10.23;;;25.70;99.90;;;;;;5036328;28;20280;-65
2021/07/24 10:26:45;;;;;;;13.13;9.03;;;25.90;99.90;;;;;;5038621;28;20732;-66
2021/07/24 10:29:18;;;;;;;12.37;10.20;;;26.00;99.90;;;;;;5035386;28;20281;-66
2021/07/24 10:31:52;;;;;;;15.63;10.37;;;25.80;99.90;;;;;;5035155;28;20259;-66
2021/07/24 10:34:24;;;;;;;16.40;10.63;;;25.80;99.90;;;;;;5034421;28;20630;-66
2021/07/24 10:36:52;;;;;;;14.33;9.77;;;26.00;99.90;;;;;;5034142;28;20219;-66
2021/07/24 10:39:21;;;;;;;13.57;9.87;;;25.90;99.90;;;;;;5034346;28;20234;-68
2021/07/24 10:41:48;;;;;;;14.87;9.70;;;26.00;99.90;;;;;;5034336;28;20210;-67
2021/07/24 10:44:16;;;;;;;14.90;10.40;;;26.00;99.90;;;;;;5034268;28;20253;-69
2021/07/24 10:47:11;;;;;;;13.17;10.50;;;26.00;99.90;;;;;;5034010;28;20257;-71
2021/07/24 10:50:04;;;;;;;14.00;10.40;;;25.80;99.90;;;;;;5034068;28;20284;-66
2021/07/24 10:53:11;;;;;;;13.13;10.03;;;26.00;99.90;;;;;;5033895;28;20205;-67
2021/07/24 10:55:48;;;;;;;13.17;10.73;;;26.10;99.90;;;;;;5033164;28;20210;-67
2021/07/24 10:58:15;;;;;;;13.97;11.40;;;26.00;99.90;;;;;;5033846;28;20226;-66
2021/07/24 11:00:52;;;;;;;12.57;10.90;;;26.00;99.90;;;;;;5033069;28;20214;-66
2021/07/24 11:03:39;;;;;;;12.97;10.60;;;25.90;99.90;;;;;;5013737;28;20285;-65
2021/07/24 11:06:23;;;;;;;16.83;11.07;;;25.80;99.90;;;;;;5005111;28;20202;-66
2021/07/24 11:09:17;;;;;;;18.80;11.37;;;25.80;99.90;;;;;;5013612;28;20230;-66
2021/07/24 11:11:47;;;;;;;14.30;11.47;;;25.70;99.90;;;;;;4978777;28;20267;-66
2021/07/24 11:14:56;;;;;;;17.20;11.20;;;25.60;99.90;;;;;;5013816;28;20241;-67
2021/07/24 11:17:24;;;;;;;15.13;11.13;;;25.50;99.90;;;;;;5012699;28;20242;-67
2021/07/24 11:20:30;;;;;;;14.73;11.30;;;25.30;99.90;;;;;;5013594;28;20227;-65
2021/07/24 11:23:05;;;;;;;15.27;10.90;;;25.20;99.90;;;;;;5013981;28;20214;-65
2021/07/24 11:25:40;;;;;;;12.53;10.47;;;25.20;99.90;;;;;;5013660;28;20374;-67
2021/07/24 11:28:09;;;;;;;17.90;11.13;;;25.10;99.90;;;;;;5013418;28;20230;-67
2021/07/24 11:30:36;;;;;;;14.00;11.47;;;25.20;99.90;;;;;;5013892;28;20685;-66
2021/07/24 11:33:04;;;;;;;14.10;10.87;;;25.10;99.90;;;;;;5013720;28;20207;-66
2021/07/24 11:35:37;;;;;;;15.20;12.23;;;25.10;99.90;;;;;;5013553;28;20211;-66
2021/07/24 11:38:04;;;;;;;13.97;10.77;;;25.00;99.90;;;;;;5013252;28;20250;-65
2021/07/24 11:40:32;;;;;;;14.50;11.83;;;24.90;99.90;;;;;;5013477;28;20203;-66
2021/07/24 11:43:01;;;;;;;17.80;12.17;;;24.40;99.90;;;;;;5013020;28;20211;-67
2021/07/24 11:45:30;;;;;;;15.93;11.93;;;24.40;99.90;;;;;;5013617;28;20211;-66
2021/07/24 11:48:08;;;;;;;15.33;11.87;;;24.20;99.90;;;;;;5012993;28;20242;-65
2021/07/24 11:50:34;;;;;;;18.23;12.00;;;24.30;99.90;;;;;;5013538;28;20253;-65
2021/07/24 11:53:02;;;;;;;13.27;11.27;;;24.20;99.90;;;;;;5013374;28;20211;-64
2021/07/24 11:55:30;;;;;;;13.93;11.80;;;24.20;99.90;;;;;;5012791;28;20306;-65
2021/07/24 11:58:01;;;;;;;16.40;11.67;;;24.20;99.90;;;;;;5013032;28;20237;-65
2021/07/24 12:00:34;;;;;;;17.33;10.93;;;24.20;99.90;;;;;;5013401;28;20207;-66
2021/07/24 12:03:20;;;;;;;13.63;11.50;;;24.40;99.90;;;;;;5013283;28;20260;-65
2021/07/24 12:05:48;;;;;;;14.77;11.33;;;24.50;99.90;;;;;;5012704;28;20315;-65
2021/07/24 12:08:17;;;;;;;16.07;11.13;;;24.70;99.90;;;;;;5012484;28;20238;-66
2021/07/24 12:10:44;;;;;;;13.43;11.50;;;24.80;99.90;;;;;;5012987;28;20211;-65
2021/07/24 12:13:12;;;;;;;15.23;11.77;;;24.90;99.90;;;;;;5012828;28;20209;-66
2021/07/24 12:16:01;;;;;;;15.83;11.97;;;25.00;99.90;;;;;;5012625;28;20698;-65
2021/07/24 12:18:29;;;;;;;15.47;11.70;;;25.00;99.90;;;;;;5012351;28;20235;-66
2021/07/24 12:21:14;;;;;;;13.43;12.03;;;24.90;99.90;;;;;;5012682;28;20234;-65
2021/07/24 12:23:44;;;;;;;15.53;12.73;;;24.80;99.90;;;;;;5012697;28;20584;-65
2021/07/24 12:26:15;;;;;;;14.23;11.57;;;24.90;99.90;;;;;;5012676;28;20293;-66
2021/07/24 12:28:43;;;;;;;13.77;11.93;;;24.90;99.90;;;;;;5012262;28;20227;-66
2021/07/24 12:31:19;;;;;;;16.57;12.07;;;25.00;99.90;;;;;;5012586;28;20626;-66
2021/07/24 12:33:46;;;;;;;16.30;11.93;;;25.00;99.90;;;;;;5012566;28;20211;-66
2021/07/24 12:36:13;;;;;;;17.27;11.80;;;25.10;99.90;;;;;;5012999;28;20260;-67
2021/07/24 12:38:40;;;;;;;18.63;12.00;;;24.90;99.90;;;;;;5012269;28;20231;-66
2021/07/24 12:41:07;;;;;;;14.53;11.63;;;24.80;99.90;;;;;;5012155;28;20219;-67
2021/07/24 12:43:36;;;;;;;15.17;11.70;;;24.80;99.90;;;;;;5012430;28;20631;-67